Dillon, Montana
Current Conditions -  °F | °C
As of 11:53 PM on Saturday 25 Oct 2014 (Local Time) from KDLN Reporting Station
Overcast Overcast  
Wind Chill: 11°   Ceiling: 9000
Heat Index: 11°   Visibility: 10mi
Dew Point:   Wind: 17mph
Humidity: 54%   Direction: 210°SSW
Pressure: 29.82"   Gusts: NA
Location:  45.22°N, 112.64°W
Report Text: KDLN 260553Z AUTO 21015KT 10SM BKN090 OVC110 11/02 A2982 RMK AO2 PRESRR SLP070 T01110022 10183 20106 53019
Loading
Personal Weather Stations






























Interactive Weather Map
Tropical Storm Tracking
New forecast layout! Learn more

10-Day Weather Forecast

Advertisements
Track Severe Weather on mobile